地図

経路データ

SID SEASON NUMBER BASIN SUBBASIN NAME ISO_TIME NATURE LAT LON WMO_WIND WMO_PRES WMO_AGENCY TRACK_TYPE DIST2LAND LANDFALL IFLAG USA_AGENCY USA_ATCF_ID USA_LAT USA_LON USA_RECORD USA_STATUS USA_WIND USA_PRES USA_SSHS USA_R34_NE USA_R34_SE USA_R34_SW USA_R34_NW USA_R50_NE USA_R50_SE USA_R50_SW USA_R50_NW USA_R64_NE USA_R64_SE USA_R64_SW USA_R64_NW USA_POCI USA_ROCI USA_RMW USA_EYE TOKYO_LAT TOKYO_LON TOKYO_GRADE TOKYO_WIND TOKYO_PRES TOKYO_R50_DIR TOKYO_R50_LONG TOKYO_R50_SHORT TOKYO_R30_DIR TOKYO_R30_LONG TOKYO_R30_SHORT TOKYO_LAND CMA_LAT CMA_LON CMA_CAT CMA_WIND CMA_PRES HKO_LAT HKO_LON HKO_CAT HKO_WIND HKO_PRES NEWDELHI_LAT NEWDELHI_LON NEWDELHI_GRADE NEWDELHI_WIND NEWDELHI_PRES NEWDELHI_CI NEWDELHI_DP NEWDELHI_POCI REUNION_LAT REUNION_LON REUNION_TYPE REUNION_WIND REUNION_PRES REUNION_TNUM REUNION_CI REUNION_RMW REUNION_R34_NE REUNION_R34_SE REUNION_R34_SW REUNION_R34_NW REUNION_R50_NE REUNION_R50_SE REUNION_R50_SW REUNION_R50_NW REUNION_R64_NE REUNION_R64_SE REUNION_R64_SW REUNION_R64_NW BOM_LAT BOM_LON BOM_TYPE BOM_WIND BOM_PRES BOM_TNUM BOM_CI BOM_RMW BOM_R34_NE BOM_R34_SE BOM_R34_SW BOM_R34_NW BOM_R50_NE BOM_R50_SE BOM_R50_SW BOM_R50_NW BOM_R64_NE BOM_R64_SE BOM_R64_SW BOM_R64_NW BOM_ROCI BOM_POCI BOM_EYE BOM_POS_METHOD BOM_PRES_METHOD NADI_LAT NADI_LON NADI_CAT NADI_WIND NADI_PRES WELLINGTON_LAT WELLINGTON_LON WELLINGTON_WIND WELLINGTON_PRES DS824_LAT DS824_LON DS824_STAGE DS824_WIND DS824_PRES TD9636_LAT TD9636_LON TD9636_STAGE TD9636_WIND TD9636_PRES TD9635_LAT TD9635_LON TD9635_WIND TD9635_PRES TD9635_ROCI NEUMANN_LAT NEUMANN_LON NEUMANN_CLASS NEUMANN_WIND NEUMANN_PRES MLC_LAT MLC_LON MLC_CLASS MLC_WIND MLC_PRES USA_GUST BOM_GUST BOM_GUST_PER REUNION_GUST REUNION_GUST_PER USA_SEAHGT USA_SEARAD_NE USA_SEARAD_SE USA_SEARAD_SW USA_SEARAD_NW STORM_SPEED STORM_DIR
1885230N12136 1885 35 WP MM NOT_NAMED 1885-08-17 16:00:00 NR 11.5000 136.300 main 1135 1124 __________O___ -1 11.5000 136.300 7 4 299
1885230N12136 1885 35 WP MM NOT_NAMED 1885-08-17 18:00:00 NR 11.5602 136.186 main 1126 1105 __________P___ -1 11.5602 136.186 7 4 298
1885230N12136 1885 35 WP MM NOT_NAMED 1885-08-17 21:00:00 NR 11.6530 136.013 main 1108 1087 __________P___ -1 11.6530 136.013 7 4 299
1885230N12136 1885 35 WP MM NOT_NAMED 1885-08-18 00:00:00 NR 11.7519 135.838 main 1089 1079 __________P___ -1 11.7519 135.838 7 4 301
1885230N12136 1885 35 WP MM NOT_NAMED 1885-08-18 03:00:00 NR 11.8608 135.660 main 1082 1071 __________P___ -1 11.8608 135.660 7 4 302
1885230N12136 1885 35 WP MM NOT_NAMED 1885-08-18 04:00:00 NR 11.9000 135.600 main 1071 1061 __________O___ -1 11.9000 135.600 7 4 304
1885230N12136 1885 35 WP MM NOT_NAMED 1885-08-18 06:00:00 NR 11.9829 135.478 main 1063 1042 __________P___ -1 11.9829 135.478 7 4 306
1885230N12136 1885 35 WP MM NOT_NAMED 1885-08-18 09:00:00 NR 12.1136 135.295 main 1042 1022 __________P___ -1 12.1136 135.295 7 4 307
1885230N12136 1885 35 WP MM NOT_NAMED 1885-08-18 12:00:00 NR 12.2437 135.118 main 1022 1013 __________P___ -1 12.2437 135.118 7 4 307
1885230N12136 1885 35 WP MM NOT_NAMED 1885-08-18 15:00:00 NR 12.3638 134.952 main 1014 1003 __________P___ -1 12.3638 134.952 7 4 306
1885230N12136 1885 35 WP MM NOT_NAMED 1885-08-18 16:00:00 NR 12.4000 134.900 main 1003 993 __________O___ -1 12.4000 134.900 7 3 303
1885230N12136 1885 35 WP MM NOT_NAMED 1885-08-18 18:00:00 NR 12.4535 134.813 main 994 983 __________P___ -1 12.4535 134.813 7 3 301
1885230N12136 1885 35 WP MM NOT_NAMED 1885-08-18 21:00:00 NR 12.5209 134.695 main 983 973 __________P___ -1 12.5209 134.695 7 3 301
1885230N12136 1885 35 WP MM NOT_NAMED 1885-08-19 00:00:00 NR 12.5870 134.579 main 975 955 __________P___ -1 12.5870 134.579 7 3 301
1885230N12136 1885 35 WP MM NOT_NAMED 1885-08-19 03:00:00 NR 12.6674 134.449 main 955 955 __________P___ -1 12.6674 134.449 7 3 303
1885230N12136 1885 35 WP MM NOT_NAMED 1885-08-19 04:00:00 NR 12.7000 134.400 main 955 944 __________O___ -1 12.7000 134.400 7 4 305
1885230N12136 1885 35 WP MM NOT_NAMED 1885-08-19 06:00:00 NR 12.7829 134.284 main 947 928 __________P___ -1 12.7829 134.284 7 5 307
1885230N12136 1885 35 WP MM NOT_NAMED 1885-08-19 09:00:00 NR 12.9261 134.091 main 928 909 __________P___ -1 12.9261 134.091 7 5 308
1885230N12136 1885 35 WP MM NOT_NAMED 1885-08-19 12:00:00 NR 13.0837 133.883 main 912 894 __________P___ -1 13.0837 133.883 7 5 308
1885230N12136 1885 35 WP MM NOT_NAMED 1885-08-19 15:00:00 NR 13.2463 133.670 main 894 886 __________P___ -1 13.2463 133.670 7 5 308
1885230N12136 1885 35 WP MM NOT_NAMED 1885-08-19 16:00:00 NR 13.3000 133.600 main 886 876 __________O___ -1 13.3000 133.600 7 5 308
1885230N12136 1885 35 WP MM NOT_NAMED 1885-08-19 18:00:00 NR 13.4000 133.467 main 878 858 __________P___ -1 13.4000 133.467 7 5 308
1885230N12136 1885 35 WP MM NOT_NAMED 1885-08-19 21:00:00 NR 13.5499 133.267 main 858 838 __________P___ -1 13.5499 133.267 7 5 308
1885230N12136 1885 35 WP MM NOT_NAMED 1885-08-20 00:00:00 NR 13.6999 133.067 main 840 821 __________P___ -1 13.6999 133.067 7 5 308
1885230N12136 1885 35 WP MM NOT_NAMED 1885-08-20 03:00:00 NR 13.8500 132.867 main 821 813 __________P___ -1 13.8500 132.867 7 5 307
1885230N12136 1885 35 WP MM NOT_NAMED 1885-08-20 04:00:00 NR 13.9000 132.800 main 813 803 __________O___ -1 13.9000 132.800 7 5 308
1885230N12136 1885 35 WP MM NOT_NAMED 1885-08-20 06:00:00 NR 14.0026 132.667 main 805 787 __________P___ -1 14.0026 132.667 7 5 308
1885230N12136 1885 35 WP MM NOT_NAMED 1885-08-20 09:00:00 NR 14.1566 132.467 main 790 769 __________P___ -1 14.1566 132.467 7 5 308
1885230N12136 1885 35 WP MM NOT_NAMED 1885-08-20 12:00:00 NR 14.3078 132.267 main 772 755 __________P___ -1 14.3078 132.267 7 5 307
1885230N12136 1885 35 WP MM NOT_NAMED 1885-08-20 15:00:00 NR 14.4533 132.067 main 759 749 __________P___ -1 14.4533 132.067 7 5 306
1885230N12136 1885 35 WP MM NOT_NAMED 1885-08-20 16:00:00 NR 14.5000 132.000 main 749 739 __________O___ -1 14.5000 132.000 7 4 305
1885230N12136 1885 35 WP MM NOT_NAMED 1885-08-20 18:00:00 NR 14.5784 131.880 main 742 726 __________P___ -1 14.5784 131.880 7 4 303
1885230N12136 1885 35 WP MM NOT_NAMED 1885-08-20 21:00:00 NR 14.6896 131.699 main 726 711 __________P___ -1 14.6896 131.699 7 4 302
1885230N12136 1885 35 WP MM NOT_NAMED 1885-08-21 00:00:00 NR 14.8069 131.506 main 711 696 __________P___ -1 14.8069 131.506 7 5 303
1885230N12136 1885 35 WP MM NOT_NAMED 1885-08-21 03:00:00 NR 14.9461 131.283 main 696 691 __________P___ -1 14.9461 131.283 7 5 303
1885230N12136 1885 35 WP MM NOT_NAMED 1885-08-21 04:00:00 NR 15.0000 131.200 main 691 677 __________O___ -1 15.0000 131.200 3 6 304
1885230N12136 1885 35 WP MM NOT_NAMED 1885-08-21 06:00:00 NR 15.1273 131.007 main 677 660 __________P___ -1 15.1273 131.007 3 7 305
1885230N12136 1885 35 WP MM NOT_NAMED 1885-08-21 09:00:00 NR 15.3434 130.685 main 660 643 __________P___ -1 15.3434 130.685 3 8 305
1885230N12136 1885 35 WP MM NOT_NAMED 1885-08-21 12:00:00 NR 15.5785 130.345 main 643 631 __________P___ -1 15.5785 130.345 3 8 306
1885230N12136 1885 35 WP MM NOT_NAMED 1885-08-21 15:00:00 NR 15.8201 130.008 main 631 630 __________P___ -1 15.8201 130.008 3 8 307
1885230N12136 1885 35 WP MM NOT_NAMED 1885-08-21 16:00:00 NR 15.9000 129.900 main 630 616 __________O___ -1 15.9000 129.900 4 7 309
1885230N12136 1885 35 WP MM NOT_NAMED 1885-08-21 18:00:00 NR 16.0418 129.718 main 616 605 __________P___ -1 16.0418 129.718 4 7 310
1885230N12136 1885 35 WP MM NOT_NAMED 1885-08-21 21:00:00 NR 16.2546 129.458 main 610 586 __________P___ -1 16.2546 129.458 4 7 311
1885230N12136 1885 35 WP MM NOT_NAMED 1885-08-22 00:00:00 NR 16.4758 129.194 main 591 575 __________P___ -1 16.4758 129.194 4 7 311
1885230N12136 1885 35 WP MM NOT_NAMED 1885-08-22 03:00:00 NR 16.7148 128.906 main 575 572 __________P___ -1 16.7148 128.906 4 7 311
1885230N12136 1885 35 WP MM NOT_NAMED 1885-08-22 04:00:00 NR 16.8000 128.800 main 572 561 __________O___ -1 16.8000 128.800 4 8 309
1885230N12136 1885 35 WP MM NOT_NAMED 1885-08-22 06:00:00 NR 16.9802 128.567 main 568 549 __________P___ -1 16.9802 128.567 4 9 309
1885230N12136 1885 35 WP MM NOT_NAMED 1885-08-22 09:00:00 NR 17.2694 128.186 main 557 542 __________P___ -1 17.2694 128.186 4 10 308
1885230N12136 1885 35 WP MM NOT_NAMED 1885-08-22 12:00:00 NR 17.5757 127.776 main 550 519 __________P___ -1 17.5757 127.776 4 10 308
1885230N12136 1885 35 WP MM NOT_NAMED 1885-08-22 15:00:00 NR 17.8929 127.346 main 519 510 __________P___ -1 17.8929 127.346 4 10 308
1885230N12136 1885 35 WP MM NOT_NAMED 1885-08-22 16:00:00 NR 18.0000 127.200 main 510 485 __________O___ -1 18.0000 127.200 4 10 308
1885230N12136 1885 35 WP MM NOT_NAMED 1885-08-22 18:00:00 NR 18.2108 126.914 main 485 443 __________P___ -1 18.2108 126.914 4 11 308
1885230N12136 1885 35 WP MM NOT_NAMED 1885-08-22 21:00:00 NR 18.5334 126.472 main 443 392 __________P___ -1 18.5334 126.472 4 11 307
1885230N12136 1885 35 WP MM NOT_NAMED 1885-08-23 00:00:00 NR 18.8609 126.018 main 393 356 __________P___ -1 18.8609 126.018 4 11 307
1885230N12136 1885 35 WP MM NOT_NAMED 1885-08-23 03:00:00 NR 19.1903 125.556 main 358 341 __________P___ -1 19.1903 125.556 4 11 307
1885230N12136 1885 35 WP MM NOT_NAMED 1885-08-23 04:00:00 NR 19.3000 125.400 main 341 319 __________O___ -1 19.3000 125.400 4 11 306
1885230N12136 1885 35 WP MM NOT_NAMED 1885-08-23 06:00:00 NR 19.5059 125.094 main 319 287 __________P___ -1 19.5059 125.094 4 11 305
1885230N12136 1885 35 WP MM NOT_NAMED 1885-08-23 09:00:00 NR 19.8146 124.628 main 287 275 __________P___ -1 19.8146 124.628 4 11 305
1885230N12136 1885 35 WP MM NOT_NAMED 1885-08-23 12:00:00 NR 20.1345 124.153 main 275 267 __________P___ -1 20.1345 124.153 4 11 306
1885230N12136 1885 35 WP MM NOT_NAMED 1885-08-23 15:00:00 NR 20.4781 123.666 main 276 271 __________P___ -1 20.4781 123.666 4 12 307
1885230N12136 1885 35 WP MM NOT_NAMED 1885-08-23 16:00:00 NR 20.6000 123.500 main 276 258 __________O___ -1 20.6000 123.500 4 12 307
1885230N12136 1885 35 WP MM NOT_NAMED 1885-08-23 18:00:00 NR 20.8449 123.145 main 258 192 __________P___ -1 20.8449 123.145 4 13 307
1885230N12136 1885 35 WP MM NOT_NAMED 1885-08-23 21:00:00 NR 21.2372 122.601 main 192 125 __________P___ -1 21.2372 122.601 4 13 309
1885230N12136 1885 35 WP MM NOT_NAMED 1885-08-24 00:00:00 NR 21.6646 122.063 main 125 72 __________P___ -1 21.6646 122.063 4 13 313
1885230N12136 1885 35 WP MM NOT_NAMED 1885-08-24 03:00:00 NR 22.1334 121.557 main 72 51 __________P___ -1 22.1334 121.557 4 13 316
1885230N12136 1885 35 WP MM NOT_NAMED 1885-08-24 04:00:00 NR 22.3000 121.400 main 51 10 __________O___ -1 22.3000 121.400 4 13 324
1885230N12136 1885 35 WP MM NOT_NAMED 1885-08-24 06:00:00 NR 22.6742 121.136 main 10 0 __________P___ -1 22.6742 121.136 4 14 330
1885230N12136 1885 35 WP MM NOT_NAMED 1885-08-24 09:00:00 NR 23.2747 120.779 main 0 0 __________P___ -1 23.2747 120.779 4 14 332
1885230N12136 1885 35 WP MM NOT_NAMED 1885-08-24 12:00:00 NR 23.8779 120.429 main 0 0 __________P___ -1 23.8779 120.429 4 13 330
1885230N12136 1885 35 WP MM NOT_NAMED 1885-08-24 15:00:00 NR 24.4339 120.044 main 52 60 __________P___ -1 24.4339 120.044 4 13 326
1885230N12136 1885 35 WP MM NOT_NAMED 1885-08-24 16:00:00 NR 24.6000 119.900 main 74 44 __________O___ -1 24.6000 119.900 4 13 318
1885230N12136 1885 35 WP MM NOT_NAMED 1885-08-24 18:00:00 NR 24.8961 119.582 main 44 0 __________P___ -1 24.8961 119.582 4 12 310
1885230N12136 1885 35 WP MM NOT_NAMED 1885-08-24 21:00:00 NR 25.2627 119.041 main 0 0 __________P___ -1 25.2627 119.041 4 12 303
1885230N12136 1885 35 WP MM NOT_NAMED 1885-08-25 00:00:00 NR 25.5608 118.444 main 0 0 __________P___ -1 25.5608 118.444 4 12 297
1885230N12136 1885 35 WP MM NOT_NAMED 1885-08-25 03:00:00 NR 25.8183 117.813 main 0 0 __________P___ -1 25.8183 117.813 4 12 294
1885230N12136 1885 35 WP MM NOT_NAMED 1885-08-25 04:00:00 NR 25.9000 117.600 main 0 __________O___ -1 25.9000 117.600 4 13 293

デジタル台風データ・検索

IBTrACS Databaseについて

本データベースは、米国NOAAが公開する1842年以降の世界の熱帯低気圧のベストトラックデータアーカイブInternational Best Track Archive for Climate Stewardship (IBTrACS)を、ウェブで閲覧しやすい形式に変換したものです。

最終更新日:2021-12-01